EST,Max TemperatureF,Mean TemperatureF,Min TemperatureF,Max Dew PointF,MeanDew PointF,Min DewpointF,Max Humidity, Mean Humidity, Min Humidity, Max Sea Level PressureIn, Mean Sea Level PressureIn, Min Sea Level PressureIn, Max VisibilityMiles, Mean VisibilityMiles, Min VisibilityMiles, Max Wind SpeedMPH, Mean Wind SpeedMPH, Max Gust SpeedMPH,PrecipitationIn, CloudCover, Events, WindDirDegrees
2012-11-1,50,46,42,41,40,37,87,77,71,29.60,29.57,29.55,20,14,10,14,9,25,0.00,7,,251
2012-11-2,48,44,41,39,36,32,81,72,58,29.74,29.65,29.60,20,14,7,23,12,28,0.00,6,,288
2012-11-3,48,44,39,34,32,28,81,68,54,29.93,29.84,29.74,20,13,7,23,15,32,0.00,6,,301
2012-11-4,48,39,30,34,31,28,93,70,54,29.99,29.95,29.92,20,15,10,12,6,,0.00,3,,331
2012-11-5,41,34,26,27,24,21,86,64,52,30.18,30.07,30.00,20,14,7,14,9,20,0.00,5,,359
2012-11-6,42,32,21,23,20,18,93,66,39,30.25,30.19,30.13,20,17,10,9,2,,0.00,0,,63
2012-11-7,37,34,30,28,25,18,93,72,52,30.12,29.95,29.84,20,10,1,21,13,32,0.00,6,Snow,31
2012-11-8,48,42,33,27,23,19,70,52,37,29.94,29.83,29.77,20,14,10,18,11,29,0.00,6,,351
2012-11-9,51,40,30,34,26,19,81,59,33,30.19,30.07,29.94,20,14,10,15,7,23,0.00,1,,299
2012-11-10,51,43,35,41,38,32,93,77,62,30.42,30.33,30.20,10,9,6,9,4,,0.00,6,,260
2012-11-11,64,52,41,48,44,37,93,76,49,30.48,30.44,30.40,15,11,6,9,2,,0.00,3,,187
2012-11-12,62,50,39,57,48,36,100,85,72,30.46,30.38,30.22,20,13,6,14,3,17,0.00,3,,197
2012-11-13,62,50,39,59,39,27,100,80,61,30.47,30.32,30.12,15,7,2,25,11,43,0.00,8,Rain,306
2012-11-14,44,38,32,27,25,19,80,60,37,30.55,30.50,30.48,20,16,10,16,9,20,0.00,1,,41
2012-11-15,42,34,26,27,26,25,93,72,49,30.48,30.40,30.32,20,14,10,12,4,,0.00,3,,85
2012-11-16,42,33,24,30,27,21,93,76,57,30.46,30.37,30.32,20,14,10,9,2,,0.00,2,,13
2012-11-17,50,37,24,32,29,23,100,78,50,30.65,30.61,30.47,20,15,10,13,2,,0.00,0,,48
2012-11-18,48,36,24,32,28,23,100,84,50,30.69,30.64,30.60,20,10,6,6,0,,0.00,0,,-1
2012-11-19,48,36,24,36,29,23,100,83,58,30.57,30.43,30.27,20,11,0,8,1,,0.00,0,Fog,90
2012-11-20,44,35,26,30,28,25,93,83,57,30.28,30.18,30.13,20,11,7,0,0,,0.00,2,,-1
2012-11-21,51,40,30,36,28,21,93,68,30,30.26,30.22,30.10,15,12,10,7,1,,0.00,2,,-1
2012-11-22,55,40,26,36,29,23,93,73,44,30.29,30.21,30.14,20,14,10,0,0,,0.00,0,,-1
2012-11-23,59,44,30,43,37,28,93,74,39,30.11,29.87,29.67,20,14,10,12,2,18,0.00,4,,228
2012-11-24,46,40,33,36,23,18,66,54,42,29.81,29.73,29.67,20,14,10,23,17,34,0.00,4,,301
2012-11-25,37,34,32,25,21,16,70,59,51,29.92,29.87,29.80,20,14,10,25,15,37,0.00,5,,284
2012-11-26,44,36,28,25,22,19,80,56,37,30.25,30.08,29.92,20,14,10,14,6,28,0.00,3,,286
2012-11-27,33,30,26,34,30,23,100,92,75,30.30,30.26,30.23,15,6,1,6,0,,0.00,8,Snow,20
2012-11-28,37,32,28,30,26,23,100,80,60,30.25,30.21,30.17,20,13,10,16,4,24,0.00,4,,269
2012-11-29,42,32,23,27,25,21,93,71,49,30.32,30.27,30.23,20,12,10,13,8,23,0.00,1,,255
2012-11-30,35,30,26,28,25,21,87,79,70,30.49,30.40,30.30,15,11,5,12,5,,0.00,5,Snow,56